Providence, Rhode Island
Traffic Map
Current Weather Conditions
Providence, Rhode Island
Broken Clouds
Broken Clouds
-11°
Feels Like: -21°
Wind Chill: -21° Ceiling: 12000
Heat Index: -11° Visibility: 10mi
Dew Point: -21° Wind: 17mph
Humidity: 44% Direction: 320° (NW)
Pressure: 29.86in Gusts: 31mph
Raw Report DataKPVD 311351Z 32015G27KT 10SM SCT070 BKN120 BKN250 M11/M21 A2986 RMK AO2 PK WND 33031/1254 SLP112 T11111211
Traffic Incident Summary
Active as of:
Severity:
Category:
InformationThere was an issue retrieving the traffic information for this location. Please try a different location or try again shortly.
Advertisements
Track Severe Weather on mobile